Terminal Aerodrome Forecast
Issued by NWS

Home | Current Version | Previous Version | Text Only | Print | Product List | Glossary On
Versions: 1 2 3 4 5 6 7 8 9 10 11 12 13 14
000
FTUS43 KPAH 281728
TAFCGI
TAF
KCGI 281728Z 2818/2918 22007KT P6SM SCT040
     FM290000 20006KT P6SM VCSH BKN100
     FM290500 23007KT P6SM BKN150
     FM291400 28008KT P6SM SCT035=

USA.gov is the U.S. government's official web portal to all federal, state and local government web resources and services.